Easton, New Hampshire
Current Conditions -  °F | °C
As of 12:15 PM on Saturday 25 Oct 2014 (Local Time) from K1P1 Reporting Station
Clear Clear  
Wind Chill: 15°   Ceiling: Unl
Heat Index: 15°   Visibility: 10mi
Dew Point:   Wind: 10mph
Humidity: 49%   Direction: 270°W
Pressure: 29.66"   Gusts: 18mph
Location:  44.1173°N, 71.8999°W
Report Text: K1P1 251615Z AUTO 27009G16KT 10SM CLR 15/04 A2966 RMK AO2 T01500043
Loading
Personal Weather Stations






























Interactive Weather Map
Tropical Storm Tracking
New forecast layout! Learn more

10-Day Weather Forecast

Advertisements
Track Severe Weather on mobile